createdAt,value
2023-04-09T00:03:50.790Z,4.80
2023-04-09T00:09:11.603Z,4.77
2023-04-09T00:14:32.424Z,4.63
2023-04-09T00:19:53.104Z,4.59
2023-04-09T00:25:14.060Z,4.63
2023-04-09T00:30:35.027Z,4.61
2023-04-09T00:35:55.688Z,4.57
2023-04-09T00:41:18.328Z,4.56
2023-04-09T00:46:39.649Z,4.53
2023-04-09T00:52:01.313Z,4.58
2023-04-09T00:57:22.530Z,4.50
2023-04-09T01:02:43.962Z,4.48
2023-04-09T01:08:23.076Z,4.31
2023-04-09T01:14:23.172Z,4.21
2023-04-09T01:20:23.120Z,4.17
2023-04-09T01:26:04.856Z,4.10
2023-04-09T01:31:39.058Z,4.11
2023-04-09T01:37:03.530Z,4.14
2023-04-09T01:42:24.928Z,4.11
2023-04-09T01:47:46.793Z,4.09
2023-04-09T01:53:08.187Z,4.16
2023-04-09T01:58:29.501Z,4.15
2023-04-09T02:04:20.765Z,4.12
2023-04-09T02:09:42.120Z,4.17
2023-04-09T02:15:04.215Z,4.21
2023-04-09T02:20:24.880Z,4.25
2023-04-09T02:25:46.022Z,4.27
2023-04-09T02:31:07.217Z,4.35
2023-04-09T02:36:28.288Z,4.65
2023-04-09T02:41:49.622Z,4.70
2023-04-09T02:47:10.355Z,4.57
2023-04-09T02:52:32.729Z,4.56
2023-04-09T02:57:53.406Z,4.55
2023-04-09T03:03:14.281Z,4.59
2023-04-09T03:08:35.643Z,4.56
2023-04-09T03:13:56.812Z,4.49
2023-04-09T03:19:17.757Z,4.60
2023-04-09T03:24:39.132Z,4.61
2023-04-09T03:30:00.793Z,4.51
2023-04-09T03:35:29.513Z,4.47
2023-04-09T03:40:53.074Z,4.49
2023-04-09T03:46:17.859Z,4.45
2023-04-09T03:51:41.631Z,4.45
2023-04-09T03:57:04.542Z,4.48
2023-04-09T04:02:27.350Z,4.50
2023-04-09T04:07:56.010Z,4.51
2023-04-09T04:13:21.454Z,4.56
2023-04-09T04:18:49.154Z,4.52
2023-04-09T04:24:11.665Z,4.36
2023-04-09T04:29:33.320Z,4.29
2023-04-09T04:34:55.772Z,4.31
2023-04-09T04:40:19.837Z,4.26
2023-04-09T04:45:44.080Z,4.29
2023-04-09T04:51:06.271Z,4.23
2023-04-09T04:56:34.594Z,4.10
2023-04-09T05:02:02.678Z,4.02
2023-04-09T05:07:27.294Z,4.01
2023-04-09T05:12:50.660Z,3.94
2023-04-09T05:18:29.068Z,4.02
2023-04-09T05:23:49.881Z,4.04
2023-04-09T05:29:10.500Z,4.04
2023-04-09T05:34:31.447Z,4.07
2023-04-09T05:39:52.194Z,4.04
2023-04-09T05:45:13.021Z,4.07
2023-04-09T05:50:53.866Z,4.07
2023-04-09T05:56:18.475Z,3.99
2023-04-09T06:01:45.480Z,3.93
2023-04-09T06:07:06.483Z,3.92
2023-04-09T06:12:27.141Z,3.87
2023-04-09T06:17:47.921Z,3.86
2023-04-09T06:23:08.609Z,3.94
2023-04-09T06:28:29.859Z,4.02
2023-04-09T06:33:50.889Z,4.04
2023-04-09T06:39:11.897Z,4.00
2023-04-09T06:44:34.252Z,4.03
2023-04-09T06:49:54.883Z,4.01
2023-04-09T06:55:15.633Z,3.98
2023-04-09T07:00:36.326Z,4.50
2023-04-09T07:05:57.839Z,4.41
2023-04-09T07:11:18.561Z,4.32
2023-04-09T07:16:39.677Z,4.36
2023-04-09T07:22:00.591Z,4.40
2023-04-09T07:27:25.886Z,5.04
2023-04-09T07:32:47.309Z,5.01
2023-04-09T07:38:08.098Z,5.01
2023-04-09T07:43:28.884Z,5.01
2023-04-09T07:48:50.393Z,5.01
2023-04-09T07:54:11.945Z,5.01
2023-04-09T07:59:35.122Z,5.00
2023-04-09T08:04:55.972Z,5.10
2023-04-09T08:10:16.989Z,5.18
2023-04-09T08:15:38.000Z,5.23
2023-04-09T08:20:58.589Z,5.54
2023-04-09T08:26:19.228Z,5.61
2023-04-09T08:31:39.980Z,5.72
2023-04-09T08:37:00.742Z,5.89
2023-04-09T08:42:24.100Z,5.80
2023-04-09T08:47:47.096Z,5.95
2023-04-09T08:53:09.659Z,6.02
2023-04-09T08:58:30.314Z,6.06
2023-04-09T09:04:01.424Z,6.14
2023-04-09T09:09:22.444Z,6.33
2023-04-09T09:14:43.256Z,6.45
2023-04-09T09:20:20.664Z,6.76
2023-04-09T09:25:42.407Z,6.80
2023-04-09T09:31:11.082Z,7.08
2023-04-09T09:36:33.936Z,7.10
2023-04-09T09:42:07.884Z,7.10
2023-04-09T09:47:29.887Z,7.12
2023-04-09T09:52:54.436Z,7.08
2023-04-09T09:58:24.980Z,7.07
2023-04-09T10:03:47.151Z,7.09
2023-04-09T10:09:08.092Z,7.39
2023-04-09T10:14:29.481Z,7.37
2023-04-09T10:20:16.496Z,7.45
2023-04-09T10:25:37.156Z,7.57
2023-04-09T10:30:59.265Z,7.69
2023-04-09T10:36:22.376Z,7.82
2023-04-09T10:41:44.880Z,8.01
2023-04-09T10:47:06.337Z,8.18
2023-04-09T10:52:30.577Z,8.25
2023-04-09T10:57:51.522Z,8.40
2023-04-09T11:03:32.506Z,8.33
2023-04-09T11:08:53.696Z,8.30
2023-04-09T11:14:20.458Z,8.18
2023-04-09T11:19:41.368Z,8.22
2023-04-09T11:25:03.069Z,8.23
2023-04-09T11:30:24.252Z,8.34
2023-04-09T11:35:45.325Z,8.34
2023-04-09T11:41:06.343Z,8.36
2023-04-09T11:46:27.614Z,8.40
2023-04-09T11:51:48.458Z,8.43
2023-04-09T11:57:09.237Z,8.45
2023-04-09T12:02:30.282Z,8.62
2023-04-09T12:13:16.801Z,8.82
2023-04-09T12:18:40.038Z,8.75
2023-04-09T12:24:01.277Z,8.65
2023-04-09T12:29:22.595Z,8.63
2023-04-09T12:34:43.871Z,8.64
2023-04-09T12:40:05.182Z,8.64
2023-04-09T12:45:26.415Z,8.62
2023-04-09T12:50:47.764Z,8.60
2023-04-09T12:56:08.969Z,8.58
2023-04-09T13:01:29.944Z,8.63
2023-04-09T13:06:50.548Z,8.65
2023-04-09T13:12:14.776Z,8.62
2023-04-09T13:17:35.810Z,8.45
2023-04-09T13:22:57.293Z,8.46
2023-04-09T13:28:17.990Z,8.41
2023-04-09T13:33:38.733Z,8.34
2023-04-09T13:39:04.566Z,8.41
2023-04-09T13:44:26.767Z,8.62
2023-04-09T13:49:47.672Z,8.59
2023-04-09T13:55:09.087Z,8.72
2023-04-09T14:00:31.786Z,9.73
2023-04-09T14:05:52.817Z,9.53
2023-04-09T14:11:18.210Z,9.22
2023-04-09T14:16:38.911Z,9.06
2023-04-09T14:21:59.573Z,9.40
2023-04-09T14:27:20.403Z,9.22
2023-04-09T14:32:41.183Z,9.16
2023-04-09T14:38:04.509Z,9.08
2023-04-09T14:43:25.647Z,8.85
2023-04-09T14:48:46.615Z,8.78
2023-04-09T14:54:07.454Z,8.75
2023-04-09T14:59:28.459Z,8.76
2023-04-09T15:04:49.395Z,8.68
2023-04-09T15:10:10.718Z,8.76
2023-04-09T15:15:32.294Z,8.89
2023-04-09T15:20:52.950Z,8.76
2023-04-09T15:26:13.680Z,8.64
2023-04-09T15:31:34.511Z,8.58
2023-04-09T15:36:55.099Z,8.56
2023-04-09T15:42:20.345Z,8.48
2023-04-09T15:47:41.144Z,8.46
2023-04-09T15:53:01.845Z,8.41
2023-04-09T15:58:22.648Z,8.38
2023-04-09T16:03:43.349Z,8.41
2023-04-09T16:09:04.157Z,8.88
2023-04-09T16:14:24.686Z,8.78
2023-04-09T16:19:45.403Z,8.75
2023-04-09T16:25:06.765Z,8.79
2023-04-09T16:30:27.579Z,8.75
2023-04-09T16:35:48.374Z,8.78
2023-04-09T16:41:09.353Z,8.64
2023-04-09T16:46:30.170Z,9.05
2023-04-09T16:51:53.136Z,8.87
2023-04-09T16:57:14.766Z,8.72
2023-04-09T17:02:36.784Z,8.62
2023-04-09T17:07:57.774Z,8.54
2023-04-09T17:13:18.398Z,8.43
2023-04-09T17:18:39.224Z,8.44
2023-04-09T17:24:01.960Z,8.55
2023-04-09T17:29:23.298Z,8.57
2023-04-09T17:34:47.465Z,8.54
2023-04-09T17:40:08.886Z,8.57
2023-04-09T17:45:29.981Z,8.52
2023-04-09T17:50:50.731Z,8.48
2023-04-09T17:56:18.089Z,8.39
2023-04-09T18:01:38.837Z,8.28
2023-04-09T18:06:59.548Z,8.02
2023-04-09T18:12:20.181Z,7.92
2023-04-09T18:17:42.245Z,7.85
2023-04-09T18:23:03.207Z,7.76
2023-04-09T18:28:23.957Z,7.65
2023-04-09T18:33:44.779Z,7.47
2023-04-09T18:39:05.618Z,7.30
2023-04-09T18:44:26.384Z,7.32
2023-04-09T18:49:47.494Z,7.40
2023-04-09T18:55:08.937Z,7.44
2023-04-09T19:00:30.095Z,7.45
2023-04-09T19:05:51.466Z,7.46
2023-04-09T19:11:14.395Z,7.45
2023-04-09T19:16:35.644Z,7.54
2023-04-09T19:21:56.305Z,7.50
2023-04-09T19:27:18.156Z,7.52
2023-04-09T19:32:39.197Z,7.55
2023-04-09T19:38:01.565Z,7.59
2023-04-09T19:43:23.782Z,7.61
2023-04-09T19:48:44.837Z,7.51
2023-04-09T19:54:05.806Z,7.35
2023-04-09T19:59:27.208Z,7.24
2023-04-09T20:04:47.932Z,7.11
2023-04-09T20:10:10.454Z,7.15
2023-04-09T20:15:31.536Z,7.19
2023-04-09T20:20:53.234Z,7.14
2023-04-09T20:26:14.036Z,7.51
2023-04-09T20:31:36.154Z,7.51
2023-04-09T20:36:57.689Z,7.55
2023-04-09T20:42:18.398Z,7.58
2023-04-09T20:47:39.192Z,7.59
2023-04-09T20:53:00.086Z,7.50
2023-04-09T20:58:21.312Z,7.41
2023-04-09T21:03:42.324Z,7.42
2023-04-09T21:09:03.184Z,7.59
2023-04-09T21:14:23.877Z,7.60
2023-04-09T21:19:44.635Z,7.62
2023-04-09T21:25:06.100Z,7.82
2023-04-09T21:30:27.811Z,7.62
2023-04-09T21:35:52.207Z,7.62
2023-04-09T21:41:13.116Z,7.63
2023-04-09T21:46:36.412Z,7.46
2023-04-09T21:51:59.274Z,7.45
2023-04-09T21:57:20.560Z,7.48
2023-04-09T22:02:42.012Z,7.57
2023-04-09T22:08:03.027Z,7.55
2023-04-09T22:13:23.831Z,7.47
2023-04-09T22:18:45.249Z,7.39
2023-04-09T22:24:06.505Z,7.38
2023-04-09T22:29:28.458Z,7.36
2023-04-09T22:34:49.212Z,7.38
2023-04-09T22:40:14.380Z,7.32
2023-04-09T22:45:34.928Z,7.26
2023-04-09T22:50:57.982Z,7.29
2023-04-09T22:56:19.723Z,7.28
2023-04-09T23:01:40.748Z,7.39
2023-04-09T23:07:02.363Z,7.41
2023-04-09T23:12:23.146Z,7.39
2023-04-09T23:17:44.020Z,7.43
2023-04-09T23:23:04.871Z,7.43
2023-04-09T23:28:25.943Z,7.46
2023-04-09T23:33:46.855Z,7.41
2023-04-09T23:39:07.421Z,7.45
2023-04-09T23:44:28.101Z,7.31
2023-04-09T23:49:48.776Z,7.34
2023-04-09T23:55:10.820Z,7.37
